sensor_id;sensor_type;location;lat;lon;timestamp;pressure;altitude;pressure_sealevel;temperature;humidity
25350;BME280;13302;48.796;11.978;2023-05-01T00:01:03;96835.38;;;12.21;33.45
25350;BME280;13302;48.796;11.978;2023-05-01T00:03:53;96831.44;;;12.22;33.40
25350;BME280;13302;48.796;11.978;2023-05-01T00:06:41;96830.97;;;12.20;33.42
25350;BME280;13302;48.796;11.978;2023-05-01T00:09:28;96825.50;;;12.24;33.41
25350;BME280;13302;48.796;11.978;2023-05-01T00:12:15;96831.06;;;12.24;33.00
25350;BME280;13302;48.796;11.978;2023-05-01T00:15:02;96825.59;;;12.27;32.98
25350;BME280;13302;48.796;11.978;2023-05-01T00:17:50;96824.78;;;12.27;32.99
25350;BME280;13302;48.796;11.978;2023-05-01T00:20:37;96818.97;;;12.32;32.77
25350;BME280;13302;48.796;11.978;2023-05-01T00:23:24;96818.97;;;12.32;32.79
25350;BME280;13302;48.796;11.978;2023-05-01T00:26:11;96819.41;;;12.34;32.74
25350;BME280;13302;48.796;11.978;2023-05-01T00:29:02;96819.84;;;12.36;32.92
25350;BME280;13302;48.796;11.978;2023-05-01T00:31:49;96816.72;;;12.37;32.82
25350;BME280;13302;48.796;11.978;2023-05-01T00:34:36;96808.75;;;12.36;32.80
25350;BME280;13302;48.796;11.978;2023-05-01T00:37:23;96808.31;;;12.34;32.62
25350;BME280;13302;48.796;11.978;2023-05-01T00:40:10;96805.16;;;12.35;32.79
25350;BME280;13302;48.796;11.978;2023-05-01T00:42:57;96797.59;;;12.32;32.72
25350;BME280;13302;48.796;11.978;2023-05-01T00:45:45;96781.75;;;12.33;32.73
25350;BME280;13302;48.796;11.978;2023-05-01T00:48:32;96782.91;;;12.32;32.68
25350;BME280;13302;48.796;11.978;2023-05-01T00:51:19;96783.31;;;12.30;32.44
25350;BME280;13302;48.796;11.978;2023-05-01T00:54:08;96772.22;;;12.30;32.61
25350;BME280;13302;48.796;11.978;2023-05-01T00:56:55;96773.38;;;12.29;32.35
25350;BME280;13302;48.796;11.978;2023-05-01T00:59:42;96768.56;;;12.26;32.13
25350;BME280;13302;48.796;11.978;2023-05-01T01:02:30;96764.19;;;12.25;32.29
25350;BME280;13302;48.796;11.978;2023-05-01T01:05:20;96764.91;;;12.22;32.39
25350;BME280;13302;48.796;11.978;2023-05-01T01:08:35;96760.53;;;12.21;32.34
25350;BME280;13302;48.796;11.978;2023-05-01T01:14:49;96751.34;;;12.17;32.71
25350;BME280;13302;48.796;11.978;2023-05-01T01:17:50;96750.91;;;12.15;32.20
25350;BME280;13302;48.796;11.978;2023-05-01T01:20:59;96762.44;;;12.17;32.54
25350;BME280;13302;48.796;11.978;2023-05-01T01:27:23;96752.84;;;12.15;32.42
25350;BME280;13302;48.796;11.978;2023-05-01T01:30:31;96759.22;;;12.15;32.23
25350;BME280;13302;48.796;11.978;2023-05-01T01:33:44;96748.50;;;12.14;32.38
25350;BME280;13302;48.796;11.978;2023-05-01T01:39:29;96742.16;;;12.13;32.15
25350;BME280;13302;48.796;11.978;2023-05-01T01:42:30;96739.38;;;12.13;32.43
25350;BME280;13302;48.796;11.978;2023-05-01T01:45:21;96738.22;;;12.14;32.34
25350;BME280;13302;48.796;11.978;2023-05-01T01:48:13;96739.38;;;12.13;32.04
25350;BME280;13302;48.796;11.978;2023-05-01T01:51:05;96738.13;;;12.11;32.00
25350;BME280;13302;48.796;11.978;2023-05-01T01:53:55;96734.94;;;12.09;32.32
25350;BME280;13302;48.796;11.978;2023-05-01T01:56:47;96730.56;;;12.08;31.95
25350;BME280;13302;48.796;11.978;2023-05-01T01:59:36;96721.72;;;12.02;32.23
25350;BME280;13302;48.796;11.978;2023-05-01T02:02:24;96716.50;;;11.97;32.28
25350;BME280;13302;48.796;11.978;2023-05-01T02:05:16;96721.22;;;11.96;32.05
25350;BME280;13302;48.796;11.978;2023-05-01T02:08:04;96729.47;;;11.93;32.13
25350;BME280;13302;48.796;11.978;2023-05-01T02:10:53;96721.16;;;11.93;32.10
25350;BME280;13302;48.796;11.978;2023-05-01T02:13:48;96721.50;;;11.91;32.21
25350;BME280;13302;48.796;11.978;2023-05-01T02:16:36;96715.97;;;11.91;32.27
25350;BME280;13302;48.796;11.978;2023-05-01T02:19:24;96714.00;;;11.92;32.17
25350;BME280;13302;48.796;11.978;2023-05-01T02:22:13;96712.75;;;11.89;32.20
25350;BME280;13302;48.796;11.978;2023-05-01T02:25:03;96708.00;;;11.90;31.88
25350;BME280;13302;48.796;11.978;2023-05-01T02:27:55;96703.19;;;11.87;31.90
25350;BME280;13302;48.796;11.978;2023-05-01T02:30:43;96705.16;;;11.86;32.13
25350;BME280;13302;48.796;11.978;2023-05-01T02:33:32;96717.44;;;11.85;32.07
25350;BME280;13302;48.796;11.978;2023-05-01T02:36:19;96702.78;;;11.85;31.97
25350;BME280;13302;48.796;11.978;2023-05-01T02:39:07;96697.22;;;11.85;32.09
25350;BME280;13302;48.796;11.978;2023-05-01T02:41:56;96699.19;;;11.84;32.02
25350;BME280;13302;48.796;11.978;2023-05-01T02:44:49;96700.00;;;11.85;31.86
25350;BME280;13302;48.796;11.978;2023-05-01T02:47:41;96697.22;;;11.85;32.18
25350;BME280;13302;48.796;11.978;2023-05-01T02:50:30;96690.09;;;11.84;32.16
25350;BME280;13302;48.796;11.978;2023-05-01T02:53:17;96687.25;;;11.80;31.90
25350;BME280;13302;48.796;11.978;2023-05-01T02:56:08;96680.44;;;11.78;32.07
25350;BME280;13302;48.796;11.978;2023-05-01T02:58:55;96680.03;;;11.76;31.95
25350;BME280;13302;48.796;11.978;2023-05-01T03:01:43;96679.56;;;11.74;31.96
25350;BME280;13302;48.796;11.978;2023-05-01T03:04:30;96679.13;;;11.72;32.03
25350;BME280;13302;48.796;11.978;2023-05-01T03:07:17;96674.34;;;11.69;31.95
25350;BME280;13302;48.796;11.978;2023-05-01T03:10:05;96673.81;;;11.63;31.97
25350;BME280;13302;48.796;11.978;2023-05-01T03:12:53;96676.06;;;11.58;32.15
25350;BME280;13302;48.796;11.978;2023-05-01T03:15:40;96673.09;;;11.50;31.91
25350;BME280;13302;48.796;11.978;2023-05-01T03:18:28;96671.00;;;11.44;32.07
25350;BME280;13302;48.796;11.978;2023-05-01T03:21:15;96662.50;;;11.37;31.97
25350;BME280;13302;48.796;11.978;2023-05-01T03:24:02;96659.59;;;11.30;32.31
25350;BME280;13302;48.796;11.978;2023-05-01T03:26:50;96663.34;;;11.22;32.07
25350;BME280;13302;48.796;11.978;2023-05-01T03:29:37;96659.63;;;11.14;32.26
25350;BME280;13302;48.796;11.978;2023-05-01T03:32:24;96663.00;;;11.08;32.40
25350;BME280;13302;48.796;11.978;2023-05-01T03:35:12;96663.31;;;11.02;32.34
25350;BME280;13302;48.796;11.978;2023-05-01T03:37:59;96657.56;;;10.95;32.37
25350;BME280;13302;48.796;11.978;2023-05-01T03:41:05;96657.41;;;10.88;32.26
25350;BME280;13302;48.796;11.978;2023-05-01T03:44:21;96653.31;;;10.82;32.75
25350;BME280;13302;48.796;11.978;2023-05-01T03:47:09;96644.91;;;10.79;32.74
25350;BME280;13302;48.796;11.978;2023-05-01T03:50:00;96644.03;;;10.75;32.93
25350;BME280;13302;48.796;11.978;2023-05-01T03:52:49;96637.97;;;10.69;32.81
25350;BME280;13302;48.796;11.978;2023-05-01T03:55:36;96632.63;;;10.61;32.84
25350;BME280;13302;48.796;11.978;2023-05-01T03:58:23;96629.75;;;10.57;32.90
25350;BME280;13302;48.796;11.978;2023-05-01T04:01:10;96642.69;;;10.53;33.08
25350;BME280;13302;48.796;11.978;2023-05-01T04:04:02;96633.50;;;10.49;32.93
25350;BME280;13302;48.796;11.978;2023-05-01T04:06:49;96633.41;;;10.45;33.22
25350;BME280;13302;48.796;11.978;2023-05-01T04:09:36;96642.38;;;10.42;33.15
25350;BME280;13302;48.796;11.978;2023-05-01T04:12:23;96640.00;;;10.41;33.27
25350;BME280;13302;48.796;11.978;2023-05-01T04:15:10;96637.50;;;10.36;33.32
25350;BME280;13302;48.796;11.978;2023-05-01T04:18:00;96644.53;;;10.33;33.53
25350;BME280;13302;48.796;11.978;2023-05-01T04:20:48;96634.97;;;10.31;33.30
25350;BME280;13302;48.796;11.978;2023-05-01T04:23:35;96640.88;;;10.29;33.51
25350;BME280;13302;48.796;11.978;2023-05-01T04:26:22;96643.19;;;10.27;33.35
25350;BME280;13302;48.796;11.978;2023-05-01T04:29:09;96636.41;;;10.25;33.46
25350;BME280;13302;48.796;11.978;2023-05-01T04:31:56;96632.84;;;10.24;33.56
25350;BME280;13302;48.796;11.978;2023-05-01T04:34:43;96642.28;;;10.23;33.50
25350;BME280;13302;48.796;11.978;2023-05-01T04:37:30;96639.88;;;10.22;33.80
25350;BME280;13302;48.796;11.978;2023-05-01T04:40:18;96640.66;;;10.22;33.86
25350;BME280;13302;48.796;11.978;2023-05-01T04:43:05;96642.28;;;10.23;33.70
25350;BME280;13302;48.796;11.978;2023-05-01T04:45:53;96644.25;;;10.23;34.00
25350;BME280;13302;48.796;11.978;2023-05-01T04:48:41;96647.81;;;10.23;33.99
25350;BME280;13302;48.796;11.978;2023-05-01T04:51:28;96640.31;;;10.24;34.09
25350;BME280;13302;48.796;11.978;2023-05-01T04:54:15;96637.22;;;10.25;34.21
25350;BME280;13302;48.796;11.978;2023-05-01T04:57:02;96638.00;;;10.26;34.23
25350;BME280;13302;48.796;11.978;2023-05-01T04:59:52;96642.75;;;10.25;34.36
25350;BME280;13302;48.796;11.978;2023-05-01T05:02:39;96645.13;;;10.27;34.54
25350;BME280;13302;48.796;11.978;2023-05-01T05:05:27;96640.75;;;10.26;34.29
25350;BME280;13302;48.796;11.978;2023-05-01T05:08:14;96638.72;;;10.23;34.32
25350;BME280;13302;48.796;11.978;2023-05-01T05:11:07;96644.63;;;10.21;34.46
25350;BME280;13302;48.796;11.978;2023-05-01T05:14:12;96650.81;;;10.18;34.75
25350;BME280;13302;48.796;11.978;2023-05-01T05:16:59;96648.78;;;10.15;34.70
25350;BME280;13302;48.796;11.978;2023-05-01T05:19:47;96649.25;;;10.17;35.08
25350;BME280;13302;48.796;11.978;2023-05-01T05:22:35;96649.25;;;10.17;34.97
25350;BME280;13302;48.796;11.978;2023-05-01T05:25:36;96642.28;;;10.23;35.21
25350;BME280;13302;48.796;11.978;2023-05-01T05:28:23;96650.31;;;10.28;35.18
25350;BME280;13302;48.796;11.978;2023-05-01T05:31:10;96648.88;;;10.34;34.82
25350;BME280;13302;48.796;11.978;2023-05-01T05:33:58;96649.09;;;10.41;34.94
25350;BME280;13302;48.796;11.978;2023-05-01T05:36:45;96644.63;;;10.52;34.86
25350;BME280;13302;48.796;11.978;2023-05-01T05:39:33;96643.34;;;10.62;34.89
25350;BME280;13302;48.796;11.978;2023-05-01T05:42:20;96641.63;;;10.73;34.73
25350;BME280;13302;48.796;11.978;2023-05-01T05:45:08;96636.34;;;10.84;34.67
25350;BME280;13302;48.796;11.978;2023-05-01T05:47:55;96633.50;;;10.96;34.59
25350;BME280;13302;48.796;11.978;2023-05-01T05:50:45;96637.69;;;11.05;34.42
25350;BME280;13302;48.796;11.978;2023-05-01T05:53:32;96635.16;;;11.16;34.23
25350;BME280;13302;48.796;11.978;2023-05-01T05:56:19;96637.38;;;11.26;33.85
25350;BME280;13302;48.796;11.978;2023-05-01T05:59:06;96629.66;;;11.35;33.72
25350;BME280;13302;48.796;11.978;2023-05-01T06:01:53;96638.06;;;11.39;33.58
25350;BME280;13302;48.796;11.978;2023-05-01T06:04:40;96633.13;;;11.48;33.76
25350;BME280;13302;48.796;11.978;2023-05-01T06:07:27;96634.53;;;11.58;33.45
25350;BME280;13302;48.796;11.978;2023-05-01T06:10:14;96625.94;;;11.63;33.58
25350;BME280;13302;48.796;11.978;2023-05-01T06:13:02;96625.28;;;11.69;33.45
25350;BME280;13302;48.796;11.978;2023-05-01T06:16:02;96621.06;;;11.75;33.14
25350;BME280;13302;48.796;11.978;2023-05-01T06:18:50;96631.41;;;11.78;33.22
25350;BME280;13302;48.796;11.978;2023-05-01T06:21:37;96627.19;;;11.84;33.15
25350;BME280;13302;48.796;11.978;2023-05-01T06:24:25;96628.88;;;11.89;33.09
25350;BME280;13302;48.796;11.978;2023-05-01T06:27:16;96625.06;;;11.97;33.38
25350;BME280;13302;48.796;11.978;2023-05-01T06:30:03;96619.19;;;12.02;33.00
25350;BME280;13302;48.796;11.978;2023-05-01T06:32:53;96622.84;;;12.06;33.29
25350;BME280;13302;48.796;11.978;2023-05-01T06:35:40;96626.94;;;12.12;33.26
25350;BME280;13302;48.796;11.978;2023-05-01T06:38:27;96630.22;;;12.18;33.21
25350;BME280;13302;48.796;11.978;2023-05-01T06:41:15;96617.94;;;12.19;33.04
25350;BME280;13302;48.796;11.978;2023-05-01T06:44:03;96616.03;;;12.23;33.14
25350;BME280;13302;48.796;11.978;2023-05-01T06:46:50;96624.88;;;12.28;32.87
25350;BME280;13302;48.796;11.978;2023-05-01T06:49:38;96621.78;;;12.33;33.21
25350;BME280;13302;48.796;11.978;2023-05-01T06:52:26;96630.59;;;12.39;33.16
25350;BME280;13302;48.796;11.978;2023-05-01T06:55:13;96630.72;;;12.42;33.06
25350;BME280;13302;48.796;11.978;2023-05-01T06:58:00;96631.19;;;12.48;33.19
25350;BME280;13302;48.796;11.978;2023-05-01T07:00:58;96634.88;;;12.56;32.93
25350;BME280;13302;48.796;11.978;2023-05-01T07:03:45;96632.25;;;12.63;33.12
25350;BME280;13302;48.796;11.978;2023-05-01T07:06:33;96628.44;;;12.71;32.75
25350;BME280;13302;48.796;11.978;2023-05-01T07:09:20;96627.38;;;12.79;32.94
25350;BME280;13302;48.796;11.978;2023-05-01T07:12:07;96620.31;;;12.85;33.21
25350;BME280;13302;48.796;11.978;2023-05-01T07:14:55;96613.72;;;12.93;33.16
25350;BME280;13302;48.796;11.978;2023-05-01T07:17:42;96624.56;;;13.02;33.16
25350;BME280;13302;48.796;11.978;2023-05-01T07:20:31;96615.91;;;13.07;33.09
25350;BME280;13302;48.796;11.978;2023-05-01T07:23:18;96610.53;;;13.17;33.11
25350;BME280;13302;48.796;11.978;2023-05-01T07:26:05;96611.44;;;13.25;32.62
25350;BME280;13302;48.796;11.978;2023-05-01T07:28:52;96611.63;;;13.36;32.91
25350;BME280;13302;48.796;11.978;2023-05-01T07:31:39;96614.47;;;13.43;32.78
25350;BME280;13302;48.796;11.978;2023-05-01T07:34:27;96607.84;;;13.51;32.88
25350;BME280;13302;48.796;11.978;2023-05-01T07:37:14;96611.09;;;13.56;32.27
25350;BME280;13302;48.796;11.978;2023-05-01T07:40:02;96610.78;;;13.61;32.61
25350;BME280;13302;48.796;11.978;2023-05-01T07:42:49;96616.78;;;13.67;32.11
25350;BME280;13302;48.796;11.978;2023-05-01T07:45:40;96614.50;;;13.72;32.20
25350;BME280;13302;48.796;11.978;2023-05-01T07:48:28;96617.75;;;13.78;32.10
25350;BME280;13302;48.796;11.978;2023-05-01T07:51:16;96609.50;;;13.85;32.28
25350;BME280;13302;48.796;11.978;2023-05-01T07:54:04;96608.75;;;13.92;31.85
25350;BME280;13302;48.796;11.978;2023-05-01T07:56:51;96605.66;;;13.97;31.97
25350;BME280;13302;48.796;11.978;2023-05-01T07:59:38;96604.88;;;14.00;31.82
25350;BME280;13302;48.796;11.978;2023-05-01T08:02:25;96603.34;;;14.02;31.70
25350;BME280;13302;48.796;11.978;2023-05-01T08:05:13;96602.19;;;14.03;32.06
25350;BME280;13302;48.796;11.978;2023-05-01T08:08:00;96608.50;;;14.04;31.58
25350;BME280;13302;48.796;11.978;2023-05-01T08:10:47;96599.81;;;14.05;31.40
25350;BME280;13302;48.796;11.978;2023-05-01T08:13:34;96598.63;;;14.06;31.76
25350;BME280;13302;48.796;11.978;2023-05-01T08:16:21;96601.41;;;14.06;31.74
25350;BME280;13302;48.796;11.978;2023-05-01T08:19:08;96617.28;;;14.06;31.80
25350;BME280;13302;48.796;11.978;2023-05-01T08:21:55;96609.75;;;14.06;31.48
25350;BME280;13302;48.796;11.978;2023-05-01T08:24:42;96614.53;;;14.09;31.78
25350;BME280;13302;48.796;11.978;2023-05-01T08:27:30;96605.41;;;14.09;31.37
25350;BME280;13302;48.796;11.978;2023-05-01T08:30:17;96599.84;;;14.09;31.37
25350;BME280;13302;48.796;11.978;2023-05-01T08:33:04;96604.22;;;14.10;31.63
25350;BME280;13302;48.796;11.978;2023-05-01T08:35:51;96611.03;;;14.12;31.78
25350;BME280;13302;48.796;11.978;2023-05-01T08:38:38;96608.69;;;14.14;31.46
25350;BME280;13302;48.796;11.978;2023-05-01T08:41:26;96607.09;;;14.17;31.76
25350;BME280;13302;48.796;11.978;2023-05-01T08:44:14;96597.22;;;14.19;31.51
25350;BME280;13302;48.796;11.978;2023-05-01T08:47:16;96590.47;;;14.20;31.71
25350;BME280;13302;48.796;11.978;2023-05-01T08:50:08;96600.84;;;14.23;31.62
25350;BME280;13302;48.796;11.978;2023-05-01T08:52:56;96598.88;;;14.28;31.61
25350;BME280;13302;48.796;11.978;2023-05-01T08:55:44;96600.91;;;14.31;31.41
25350;BME280;13302;48.796;11.978;2023-05-01T08:58:35;96601.31;;;14.33;31.39
25350;BME280;13302;48.796;11.978;2023-05-01T09:01:25;96600.94;;;14.34;31.27
25350;BME280;13302;48.796;11.978;2023-05-01T09:04:14;96605.72;;;14.37;31.75
25350;BME280;13302;48.796;11.978;2023-05-01T09:07:02;96607.31;;;14.38;31.53
25350;BME280;13302;48.796;11.978;2023-05-01T09:09:49;96599.00;;;14.42;31.55
25350;BME280;13302;48.796;11.978;2023-05-01T09:12:37;96601.78;;;14.42;31.44
25350;BME280;13302;48.796;11.978;2023-05-01T09:15:25;96601.44;;;14.43;31.32
25350;BME280;13302;48.796;11.978;2023-05-01T09:18:13;96601.03;;;14.45;31.36
25350;BME280;13302;48.796;11.978;2023-05-01T09:21:00;96604.59;;;14.45;31.22
25350;BME280;13302;48.796;11.978;2023-05-01T09:23:52;96605.03;;;14.47;31.71
25350;BME280;13302;48.796;11.978;2023-05-01T09:26:39;96607.84;;;14.51;31.60
25350;BME280;13302;48.796;11.978;2023-05-01T09:29:39;96603.47;;;14.50;31.61
25350;BME280;13302;48.796;11.978;2023-05-01T09:32:26;96600.31;;;14.51;31.64
25350;BME280;13302;48.796;11.978;2023-05-01T09:35:14;96611.47;;;14.55;31.46
25350;BME280;13302;48.796;11.978;2023-05-01T09:38:03;96607.91;;;14.58;31.79
25350;BME280;13302;48.796;11.978;2023-05-01T09:40:52;96611.94;;;14.60;31.50
25350;BME280;13302;48.796;11.978;2023-05-01T09:43:40;96607.56;;;14.63;31.49
25350;BME280;13302;48.796;11.978;2023-05-01T09:46:27;96606.38;;;14.64;31.54
25350;BME280;13302;48.796;11.978;2023-05-01T09:49:14;96611.94;;;14.64;31.41
25350;BME280;13302;48.796;11.978;2023-05-01T09:52:10;96608.38;;;14.63;31.31
25350;BME280;13302;48.796;11.978;2023-05-01T09:55:17;96607.97;;;14.65;31.34
25350;BME280;13302;48.796;11.978;2023-05-01T09:58:04;96603.63;;;14.67;31.46
25350;BME280;13302;48.796;11.978;2023-05-01T10:00:52;96610.41;;;14.70;31.59
25350;BME280;13302;48.796;11.978;2023-05-01T10:03:39;96612.38;;;14.69;31.27
25350;BME280;13302;48.796;11.978;2023-05-01T10:06:29;96614.00;;;14.70;30.94
25350;BME280;13302;48.796;11.978;2023-05-01T10:09:26;96610.81;;;14.68;31.17
25350;BME280;13302;48.796;11.978;2023-05-01T10:12:22;96613.97;;;14.67;31.21
25350;BME280;13302;48.796;11.978;2023-05-01T10:15:09;96616.75;;;14.67;31.20
25350;BME280;13302;48.796;11.978;2023-05-01T10:18:11;96621.94;;;14.68;31.11
25350;BME280;13302;48.796;11.978;2023-05-01T10:21:00;96623.13;;;14.67;31.50
25350;BME280;13302;48.796;11.978;2023-05-01T10:23:47;96614.78;;;14.71;31.34
25350;BME280;13302;48.796;11.978;2023-05-01T10:26:35;96619.59;;;14.74;31.28
25350;BME280;13302;48.796;11.978;2023-05-01T10:29:23;96611.66;;;14.76;31.38
25350;BME280;13302;48.796;11.978;2023-05-01T10:32:13;96619.66;;;14.81;31.31
25350;BME280;13302;48.796;11.978;2023-05-01T10:35:04;96614.09;;;14.81;31.43
25350;BME280;13302;48.796;11.978;2023-05-01T10:38:00;96615.31;;;14.87;31.47
25350;BME280;13302;48.796;11.978;2023-05-01T10:40:49;96611.81;;;14.94;31.31
25350;BME280;13302;48.796;11.978;2023-05-01T10:43:36;96612.25;;;14.96;31.54
25350;BME280;13302;48.796;11.978;2023-05-01T10:49:12;96597.56;;;15.02;31.04
25350;BME280;13302;48.796;11.978;2023-05-01T10:52:00;96590.81;;;15.03;31.38
25350;BME280;13302;48.796;11.978;2023-05-01T10:54:48;96591.66;;;15.11;31.13
25350;BME280;13302;48.796;11.978;2023-05-01T10:57:42;96589.72;;;15.15;31.52
25350;BME280;13302;48.796;11.978;2023-05-01T11:00:32;96591.34;;;15.20;30.98
25350;BME280;13302;48.796;11.978;2023-05-01T11:06:07;96590.22;;;15.31;31.36
25350;BME280;13302;48.796;11.978;2023-05-01T11:08:55;96593.44;;;15.37;31.04
25350;BME280;13302;48.796;11.978;2023-05-01T11:23:23;96581.97;;;15.49;31.29
25350;BME280;13302;48.796;11.978;2023-05-01T11:26:11;96581.97;;;15.52;30.68
25350;BME280;13302;48.796;11.978;2023-05-01T11:29:00;96577.19;;;15.53;30.92
25350;BME280;13302;48.796;11.978;2023-05-01T11:31:47;96570.44;;;15.54;30.87
25350;BME280;13302;48.796;11.978;2023-05-01T11:34:34;96570.84;;;15.56;30.86
25350;BME280;13302;48.796;11.978;2023-05-01T11:37:40;96572.81;;;15.55;30.72
25350;BME280;13302;48.796;11.978;2023-05-01T11:40:29;96568.84;;;15.56;30.77
25350;BME280;13302;48.796;11.978;2023-05-01T11:43:17;96569.28;;;15.58;30.79
25350;BME280;13302;48.796;11.978;2023-05-01T11:46:04;96568.50;;;15.61;30.77
25350;BME280;13302;48.796;11.978;2023-05-01T11:48:55;96565.31;;;15.63;31.18
25350;BME280;13302;48.796;11.978;2023-05-01T11:51:42;96570.91;;;15.67;30.87
25350;BME280;13302;48.796;11.978;2023-05-01T11:54:29;96562.56;;;15.67;30.93
25350;BME280;13302;48.796;11.978;2023-05-01T11:57:17;96569.72;;;15.68;30.87
25350;BME280;13302;48.796;11.978;2023-05-01T12:00:06;96570.16;;;15.70;30.78
25350;BME280;13302;48.796;11.978;2023-05-01T12:05:50;96565.75;;;15.69;30.88
25350;BME280;13302;48.796;11.978;2023-05-01T12:08:42;96563.72;;;15.66;31.14
25350;BME280;13302;48.796;11.978;2023-05-01T12:11:29;96562.13;;;15.64;31.05
25350;BME280;13302;48.796;11.978;2023-05-01T12:14:17;96568.50;;;15.65;31.13
25350;BME280;13302;48.796;11.978;2023-05-01T12:17:05;96562.53;;;15.63;31.25
25350;BME280;13302;48.796;11.978;2023-05-01T12:19:52;96565.31;;;15.63;31.57
25350;BME280;13302;48.796;11.978;2023-05-01T12:22:49;96561.72;;;15.59;31.48
25350;BME280;13302;48.796;11.978;2023-05-01T12:25:37;96558.13;;;15.58;31.25
25350;BME280;13302;48.796;11.978;2023-05-01T12:28:27;96571.66;;;15.60;31.93
25350;BME280;13302;48.796;11.978;2023-05-01T12:31:18;96573.25;;;15.57;32.41
25350;BME280;13302;48.796;11.978;2023-05-01T12:34:07;96587.53;;;15.52;32.60
25350;BME280;13302;48.796;11.978;2023-05-01T12:36:54;96584.38;;;15.50;32.84
25350;BME280;13302;48.796;11.978;2023-05-01T12:39:41;96581.53;;;15.43;33.29
25350;BME280;13302;48.796;11.978;2023-05-01T12:42:30;96578.31;;;15.38;32.98
25350;BME280;13302;48.796;11.978;2023-05-01T12:45:18;96580.28;;;15.30;32.95
25350;BME280;13302;48.796;11.978;2023-05-01T12:48:10;96587.38;;;15.24;33.53
25350;BME280;13302;48.796;11.978;2023-05-01T12:50:59;96588.53;;;15.16;34.04
25350;BME280;13302;48.796;11.978;2023-05-01T12:53:46;96577.72;;;15.07;34.04
25350;BME280;13302;48.796;11.978;2023-05-01T12:56:37;96586.03;;;15.00;34.10
25350;BME280;13302;48.796;11.978;2023-05-01T12:59:25;96579.16;;;14.91;34.14
25350;BME280;13302;48.796;11.978;2023-05-01T13:02:14;96575.16;;;14.85;34.28
25350;BME280;13302;48.796;11.978;2023-05-01T13:05:07;96577.47;;;14.76;34.81
25350;BME280;13302;48.796;11.978;2023-05-01T13:07:56;96580.56;;;14.67;35.23
25350;BME280;13302;48.796;11.978;2023-05-01T13:10:45;96582.16;;;14.64;35.56
25350;BME280;13302;48.796;11.978;2023-05-01T13:13:34;96582.53;;;14.63;35.27
25350;BME280;13302;48.796;11.978;2023-05-01T13:16:21;96584.44;;;14.52;35.77
25350;BME280;13302;48.796;11.978;2023-05-01T13:19:13;96582.78;;;14.47;35.50
25350;BME280;13302;48.796;11.978;2023-05-01T13:22:11;96574.78;;;14.42;36.06
25350;BME280;13302;48.796;11.978;2023-05-01T13:25:21;96574.38;;;14.40;36.07
25350;BME280;13302;48.796;11.978;2023-05-01T13:28:07;96577.91;;;14.37;36.07
25350;BME280;13302;48.796;11.978;2023-05-01T13:30:55;96583.81;;;14.32;36.38
25350;BME280;13302;48.796;11.978;2023-05-01T13:33:42;96575.88;;;14.31;36.10
25350;BME280;13302;48.796;11.978;2023-05-01T13:36:32;96577.81;;;14.27;36.38
25350;BME280;13302;48.796;11.978;2023-05-01T13:39:19;96584.53;;;14.22;36.90
25350;BME280;13302;48.796;11.978;2023-05-01T13:42:07;96574.56;;;14.21;36.65
25350;BME280;13302;48.796;11.978;2023-05-01T13:44:56;96576.16;;;14.18;37.04
25350;BME280;13302;48.796;11.978;2023-05-01T13:47:43;96569.69;;;14.11;36.78
25350;BME280;13302;48.796;11.978;2023-05-01T13:50:30;96574.44;;;14.10;37.06
25350;BME280;13302;48.796;11.978;2023-05-01T13:53:17;96575.25;;;14.11;37.00
25350;BME280;13302;48.796;11.978;2023-05-01T13:56:08;96580.78;;;14.07;37.96
25350;BME280;13302;48.796;11.978;2023-05-01T13:58:58;96574.00;;;14.08;37.39
25350;BME280;13302;48.796;11.978;2023-05-01T14:01:48;96570.50;;;14.11;37.40
25350;BME280;13302;48.796;11.978;2023-05-01T14:04:35;96571.28;;;14.12;37.56
25350;BME280;13302;48.796;11.978;2023-05-01T14:07:23;96568.94;;;14.14;37.98
25350;BME280;13302;48.796;11.978;2023-05-01T14:10:12;96573.34;;;14.15;38.08
25350;BME280;13302;48.796;11.978;2023-05-01T14:12:59;96576.13;;;14.15;38.29
25350;BME280;13302;48.796;11.978;2023-05-01T14:15:47;96569.75;;;14.14;37.93
25350;BME280;13302;48.796;11.978;2023-05-01T14:18:35;96566.56;;;14.16;38.25
25350;BME280;13302;48.796;11.978;2023-05-01T14:21:29;96571.72;;;14.14;37.83
25350;BME280;13302;48.796;11.978;2023-05-01T14:24:16;96570.13;;;14.13;37.95
25350;BME280;13302;48.796;11.978;2023-05-01T14:27:06;96571.28;;;14.12;37.96
25350;BME280;13302;48.796;11.978;2023-05-01T14:29:59;96578.03;;;14.11;38.18
25350;BME280;13302;48.796;11.978;2023-05-01T14:32:48;96574.00;;;14.08;38.36
25350;BME280;13302;48.796;11.978;2023-05-01T14:35:36;96573.97;;;14.05;38.30
25350;BME280;13302;48.796;11.978;2023-05-01T14:38:29;96577.94;;;14.04;38.91
25350;BME280;13302;48.796;11.978;2023-05-01T14:41:24;96584.25;;;14.01;38.95
25350;BME280;13302;48.796;11.978;2023-05-01T14:44:13;96581.91;;;14.03;38.93
25350;BME280;13302;48.796;11.978;2023-05-01T14:47:01;96592.63;;;14.04;38.73
25350;BME280;13302;48.796;11.978;2023-05-01T14:49:50;96581.13;;;14.02;38.76
25350;BME280;13302;48.796;11.978;2023-05-01T14:52:41;96585.50;;;14.03;39.11
25350;BME280;13302;48.796;11.978;2023-05-01T14:55:30;96586.66;;;14.02;38.76
25350;BME280;13302;48.796;11.978;2023-05-01T14:58:20;96587.84;;;14.01;38.95
25350;BME280;13302;48.796;11.978;2023-05-01T15:01:07;96589.44;;;14.02;38.88
25350;BME280;13302;48.796;11.978;2023-05-01T15:03:54;96583.91;;;14.02;39.11
25350;BME280;13302;48.796;11.978;2023-05-01T15:06:42;96587.47;;;14.03;39.29
25350;BME280;13302;48.796;11.978;2023-05-01T15:09:32;96585.91;;;14.05;39.37
25350;BME280;13302;48.796;11.978;2023-05-01T15:12:19;96595.41;;;14.04;39.55
25350;BME280;13302;48.796;11.978;2023-05-01T15:15:07;96602.59;;;14.05;39.23